createdAt,value
2022-12-18T00:03:38.775Z,88.77
2022-12-18T00:08:43.321Z,88.63
2022-12-18T00:13:48.001Z,88.61
2022-12-18T00:18:54.942Z,88.64
2022-12-18T00:23:58.808Z,87.96
2022-12-18T00:29:05.699Z,87.93
2022-12-18T00:34:12.199Z,87.72
2022-12-18T00:39:17.168Z,88.03
2022-12-18T00:44:21.934Z,88.53
2022-12-18T00:49:26.893Z,88.76
2022-12-18T00:54:30.442Z,88.49
2022-12-18T00:59:33.902Z,88.33
2022-12-18T01:04:39.124Z,88.31
2022-12-18T01:09:42.794Z,88.41
2022-12-18T01:14:46.592Z,87.33
2022-12-18T01:19:53.207Z,87.38
2022-12-18T01:24:56.650Z,87.62
2022-12-18T01:30:00.211Z,88.45
2022-12-18T01:35:06.528Z,87.80
2022-12-18T01:40:11.029Z,87.06
2022-12-18T01:45:28.771Z,87.20
2022-12-18T01:50:38.056Z,86.45
2022-12-18T01:55:45.594Z,87.45
2022-12-18T02:00:50.402Z,88.31
2022-12-18T02:06:07.220Z,88.79
2022-12-18T02:11:17.786Z,89.23
2022-12-18T02:16:27.090Z,89.10
2022-12-18T02:21:39.805Z,89.55
2022-12-18T02:26:48.754Z,90.23
2022-12-18T02:31:56.715Z,90.08
2022-12-18T02:37:04.283Z,90.11
2022-12-18T02:42:10.068Z,89.32
2022-12-18T02:47:15.778Z,88.75
2022-12-18T02:52:27.418Z,88.50
2022-12-18T02:57:39.543Z,88.38
2022-12-18T03:02:50.671Z,88.45
2022-12-18T03:08:00.001Z,88.32
2022-12-18T03:13:12.005Z,88.53
2022-12-18T03:18:19.801Z,88.49
2022-12-18T03:23:26.427Z,88.37
2022-12-18T03:28:34.346Z,87.71
2022-12-18T03:33:44.649Z,87.66
2022-12-18T03:38:48.376Z,87.63
2022-12-18T03:44:02.739Z,87.37
2022-12-18T03:49:13.699Z,87.23
2022-12-18T03:54:19.688Z,87.22
2022-12-18T03:59:34.358Z,86.98
2022-12-18T04:04:39.800Z,86.70
2022-12-18T04:09:45.877Z,86.44
2022-12-18T04:14:52.137Z,85.95
2022-12-18T04:19:55.838Z,85.83
2022-12-18T04:25:01.353Z,85.34
2022-12-18T04:30:14.522Z,85.37
2022-12-18T04:35:18.642Z,85.28
2022-12-18T04:40:22.621Z,85.09
2022-12-18T04:45:28.621Z,86.30
2022-12-18T04:50:32.795Z,87.22
2022-12-18T04:55:36.295Z,87.04
2022-12-18T05:00:41.181Z,87.56
2022-12-18T05:05:44.936Z,87.29
2022-12-18T05:10:48.739Z,88.20
2022-12-18T05:15:55.399Z,88.01
2022-12-18T05:20:59.278Z,88.56
2022-12-18T05:26:05.895Z,88.86
2022-12-18T05:31:11.119Z,89.39
2022-12-18T05:36:14.794Z,90.01
2022-12-18T05:41:18.298Z,91.20
2022-12-18T05:46:23.371Z,91.30
2022-12-18T05:51:27.038Z,92.01
2022-12-18T05:56:30.402Z,92.50
2022-12-18T06:01:35.462Z,93.03
2022-12-18T06:06:39.265Z,92.87
2022-12-18T06:11:42.920Z,93.81
2022-12-18T06:16:47.722Z,93.71
2022-12-18T06:21:51.856Z,94.16
2022-12-18T06:26:55.325Z,93.93
2022-12-18T06:32:00.903Z,93.99
2022-12-18T06:37:05.432Z,93.45
2022-12-18T06:42:09.046Z,92.71
2022-12-18T06:47:14.258Z,92.52
2022-12-18T06:52:17.788Z,92.11
2022-12-18T06:57:21.306Z,92.70
2022-12-18T07:02:26.244Z,92.31
2022-12-18T07:07:29.803Z,92.69
2022-12-18T07:12:33.218Z,93.04
2022-12-18T07:17:38.172Z,93.21
2022-12-18T07:22:41.650Z,93.14
2022-12-18T07:27:45.129Z,93.28
2022-12-18T07:32:50.296Z,93.17
2022-12-18T07:37:53.942Z,93.53
2022-12-18T07:42:57.364Z,93.71
2022-12-18T07:48:02.390Z,93.22
2022-12-18T07:53:06.191Z,93.04
2022-12-18T07:58:10.301Z,92.50
2022-12-18T08:03:16.469Z,92.32
2022-12-18T08:08:19.959Z,92.64
2022-12-18T08:13:24.301Z,92.80
2022-12-18T08:18:29.671Z,92.71
2022-12-18T08:23:35.094Z,92.69
2022-12-18T08:28:42.720Z,93.28
2022-12-18T08:33:48.108Z,92.33
2022-12-18T08:38:51.788Z,92.66
2022-12-18T08:44:12.510Z,92.08
2022-12-18T08:49:17.370Z,92.42
2022-12-18T08:54:21.825Z,91.95
2022-12-18T08:59:25.592Z,91.64
2022-12-18T09:04:30.479Z,91.51
2022-12-18T09:09:34.119Z,91.92
2022-12-18T09:14:38.514Z,91.62
2022-12-18T09:19:43.399Z,91.86
2022-12-18T09:24:46.825Z,92.00
2022-12-18T09:29:50.392Z,92.78
2022-12-18T09:34:55.185Z,92.47
2022-12-18T09:39:58.615Z,93.06
2022-12-18T09:45:03.208Z,93.34
2022-12-18T09:50:22.806Z,93.32
2022-12-18T09:55:36.617Z,93.07
2022-12-18T10:00:41.094Z,92.02
2022-12-18T10:05:52.264Z,91.42
2022-12-18T10:10:59.929Z,89.82
2022-12-18T10:16:13.403Z,87.88
2022-12-18T10:21:23.909Z,87.51
2022-12-18T10:26:27.471Z,87.16
2022-12-18T10:31:30.914Z,86.50
2022-12-18T10:36:36.140Z,85.85
2022-12-18T10:41:39.711Z,83.68
2022-12-18T10:46:43.664Z,81.03
2022-12-18T10:51:48.745Z,79.19
2022-12-18T10:56:52.378Z,78.29
2022-12-18T11:01:57.839Z,79.17
2022-12-18T11:07:04.934Z,77.83
2022-12-18T11:12:18.226Z,77.90
2022-12-18T11:17:25.924Z,78.01
2022-12-18T11:22:33.976Z,77.45
2022-12-18T11:27:37.513Z,79.08
2022-12-18T11:32:43.154Z,78.08
2022-12-18T11:37:53.193Z,78.11
2022-12-18T11:43:03.494Z,78.29
2022-12-18T11:48:19.096Z,78.42
2022-12-18T11:53:25.254Z,78.90
2022-12-18T11:58:39.945Z,78.77
2022-12-18T12:04:21.620Z,78.57
2022-12-18T12:09:33.605Z,78.55
2022-12-18T12:14:51.986Z,79.75
2022-12-18T12:20:04.561Z,79.53
2022-12-18T12:25:34.248Z,78.71
2022-12-18T12:30:50.882Z,77.89
2022-12-18T12:36:02.338Z,78.90
2022-12-18T12:41:31.519Z,78.03
2022-12-18T12:46:39.490Z,73.45
2022-12-18T12:51:47.097Z,72.79
2022-12-18T12:56:57.091Z,72.80
2022-12-18T13:02:07.904Z,74.07
2022-12-18T13:07:18.735Z,74.96
2022-12-18T13:12:41.339Z,76.31
2022-12-18T13:17:46.182Z,76.16
2022-12-18T13:22:51.958Z,75.81
2022-12-18T13:28:04.756Z,76.57
2022-12-18T13:33:56.259Z,75.49
2022-12-18T13:39:30.024Z,74.53
2022-12-18T13:44:41.544Z,75.37
2022-12-18T13:49:46.839Z,76.21
2022-12-18T13:54:55.166Z,76.39
2022-12-18T14:00:21.836Z,77.35
2022-12-18T14:05:27.561Z,77.74
2022-12-18T14:10:47.619Z,78.65
2022-12-18T14:15:54.732Z,79.00
2022-12-18T14:21:02.668Z,80.31
2022-12-18T14:26:24.032Z,80.92
2022-12-18T14:31:33.335Z,81.06
2022-12-18T14:36:37.109Z,80.88
2022-12-18T14:41:40.633Z,80.55
2022-12-18T14:46:46.924Z,81.39
2022-12-18T14:51:51.988Z,82.33
2022-12-18T14:57:02.300Z,82.22
2022-12-18T15:02:15.980Z,80.89
2022-12-18T15:07:22.136Z,80.79
2022-12-18T15:12:32.630Z,81.35
2022-12-18T15:17:43.614Z,81.76
2022-12-18T15:22:50.071Z,82.57
2022-12-18T15:27:54.050Z,82.74
2022-12-18T15:33:25.969Z,82.94
2022-12-18T15:38:29.743Z,82.57
2022-12-18T15:43:36.391Z,82.66
2022-12-18T15:48:43.534Z,82.18
2022-12-18T15:53:47.679Z,81.71
2022-12-18T15:58:51.157Z,82.91
2022-12-18T16:03:56.590Z,81.75
2022-12-18T16:09:00.670Z,81.60
2022-12-18T16:14:04.405Z,81.29
2022-12-18T16:19:09.801Z,80.93
2022-12-18T16:24:17.255Z,81.35
2022-12-18T16:29:25.799Z,81.58
2022-12-18T16:34:35.413Z,80.71
2022-12-18T16:39:40.665Z,81.09
2022-12-18T16:44:45.331Z,79.58
2022-12-18T16:49:53.008Z,79.21
2022-12-18T16:54:56.911Z,78.64
2022-12-18T17:00:05.064Z,80.06
2022-12-18T17:05:10.997Z,80.01
2022-12-18T17:10:15.831Z,79.80
2022-12-18T17:15:19.445Z,80.15
2022-12-18T17:20:25.096Z,80.08
2022-12-18T17:25:28.911Z,79.54
2022-12-18T17:30:32.355Z,79.61
2022-12-18T17:35:37.653Z,79.77
2022-12-18T17:40:46.040Z,79.92
2022-12-18T17:46:09.389Z,78.15
2022-12-18T17:51:13.717Z,78.62
2022-12-18T17:56:20.081Z,78.82
2022-12-18T18:01:26.845Z,77.64
2022-12-18T18:06:30.391Z,77.24
2022-12-18T18:11:53.291Z,77.17
2022-12-18T18:17:04.724Z,77.76
2022-12-18T18:22:08.615Z,77.04
2022-12-18T18:27:12.384Z,77.97
2022-12-18T18:32:17.381Z,77.81
2022-12-18T18:37:21.024Z,78.51
2022-12-18T18:42:24.501Z,79.20
2022-12-18T18:47:30.697Z,78.62
2022-12-18T18:52:34.247Z,79.24
2022-12-18T18:57:38.436Z,79.42
2022-12-18T19:02:43.420Z,80.48
2022-12-18T19:07:47.385Z,80.24
2022-12-18T19:13:07.925Z,79.64
2022-12-18T19:18:13.203Z,79.11
2022-12-18T19:23:16.705Z,78.96
2022-12-18T19:28:26.015Z,79.29
2022-12-18T19:33:48.191Z,79.31
2022-12-18T19:38:52.492Z,79.24
2022-12-18T19:43:56.147Z,79.02
2022-12-18T19:49:01.938Z,79.43
2022-12-18T19:54:07.071Z,79.50
2022-12-18T19:59:11.184Z,79.90
2022-12-18T20:04:16.072Z,79.82
2022-12-18T20:09:20.502Z,80.15
2022-12-18T20:14:25.063Z,79.96
2022-12-18T20:19:30.017Z,80.19
2022-12-18T20:24:33.532Z,80.61
2022-12-18T20:29:36.887Z,80.56
2022-12-18T20:34:42.285Z,80.18
2022-12-18T20:39:46.658Z,80.07
2022-12-18T20:44:50.870Z,80.36
2022-12-18T20:49:56.469Z,79.87
2022-12-18T20:54:59.841Z,80.07
2022-12-18T21:00:08.485Z,80.24
2022-12-18T21:05:13.867Z,79.99
2022-12-18T21:10:17.315Z,78.83
2022-12-18T21:15:26.811Z,79.38
2022-12-18T21:20:33.465Z,78.88
2022-12-18T21:25:37.090Z,78.43
2022-12-18T21:30:41.015Z,78.23
2022-12-18T21:35:46.061Z,78.06
2022-12-18T21:40:49.433Z,78.57
2022-12-18T21:45:52.929Z,79.05
2022-12-18T21:50:57.755Z,79.26
2022-12-18T21:56:01.800Z,79.35
2022-12-18T22:01:05.300Z,79.83
2022-12-18T22:06:10.488Z,80.39
2022-12-18T22:11:14.644Z,80.99
2022-12-18T22:16:19.636Z,81.94
2022-12-18T22:21:29.278Z,81.37
2022-12-18T22:26:39.466Z,81.69
2022-12-18T22:31:43.689Z,81.67
2022-12-18T22:36:49.714Z,81.96
2022-12-18T22:41:53.718Z,82.47
2022-12-18T22:47:06.954Z,82.48
2022-12-18T22:52:12.458Z,82.13
2022-12-18T22:57:16.965Z,82.11
2022-12-18T23:02:21.029Z,82.45
2022-12-18T23:07:25.989Z,82.41
2022-12-18T23:12:29.477Z,82.02
2022-12-18T23:17:32.974Z,82.08
2022-12-18T23:22:38.021Z,82.61
2022-12-18T23:27:41.398Z,82.53
2022-12-18T23:32:44.757Z,82.34
2022-12-18T23:37:58.676Z,82.69
2022-12-18T23:43:03.078Z,81.91
2022-12-18T23:48:06.460Z,81.75
2022-12-18T23:53:11.944Z,81.76
2022-12-18T23:58:18.530Z,81.46
